createdAt,value
2023-01-08T00:00:17.879Z,38.6
2023-01-08T00:05:17.859Z,38.5
2023-01-08T00:10:18.149Z,38.2
2023-01-08T00:15:17.817Z,38.2
2023-01-08T00:20:18.602Z,38.1
2023-01-08T00:25:18.089Z,38.0
2023-01-08T00:30:18.173Z,37.9
2023-01-08T00:35:17.925Z,37.8
2023-01-08T00:40:18.090Z,37.6
2023-01-08T00:45:17.889Z,37.6
2023-01-08T00:50:17.990Z,37.4
2023-01-08T00:55:17.918Z,37.3
2023-01-08T01:00:18.160Z,37.2
2023-01-08T01:05:18.089Z,37.1
2023-01-08T01:10:18.060Z,37.0
2023-01-08T01:15:18.253Z,36.8
2023-01-08T01:20:18.171Z,36.8
2023-01-08T01:25:17.977Z,36.5
2023-01-08T01:30:18.247Z,36.4
2023-01-08T01:36:23.687Z,36.3
2023-01-08T01:40:18.577Z,36.1
2023-01-08T01:45:18.124Z,36.1
2023-01-08T01:50:19.287Z,36.0
2023-01-08T01:55:18.162Z,35.9
2023-01-08T02:00:18.334Z,35.8
2023-01-08T02:05:18.262Z,35.5
2023-01-08T02:10:18.658Z,35.4
2023-01-08T02:15:16.246Z,35.3
2023-01-08T02:20:16.264Z,35.5
2023-01-08T02:25:16.526Z,35.4
2023-01-08T02:30:16.285Z,35.4
2023-01-08T02:35:16.284Z,35.3
2023-01-08T02:40:16.351Z,35.1
2023-01-08T02:45:16.369Z,35.0
2023-01-08T02:50:16.784Z,35.1
2023-01-08T02:55:16.257Z,35.0
2023-01-08T03:00:16.336Z,34.8
2023-01-08T03:05:16.362Z,34.7
2023-01-08T03:10:16.524Z,34.6
2023-01-08T03:15:16.515Z,34.3
2023-01-08T03:20:16.494Z,34.3
2023-01-08T03:25:16.327Z,34.0
2023-01-08T03:30:16.562Z,34.0
2023-01-08T03:35:16.592Z,33.7
2023-01-08T03:40:16.605Z,33.5
2023-01-08T03:45:16.393Z,33.3
2023-01-08T03:50:18.139Z,33.0
2023-01-08T03:55:16.418Z,32.7
2023-01-08T04:00:16.805Z,32.5
2023-01-08T04:05:16.863Z,32.5
2023-01-08T04:10:16.521Z,32.2
2023-01-08T04:15:16.599Z,31.9
2023-01-08T04:20:16.614Z,32.0
2023-01-08T04:25:16.718Z,32.0
2023-01-08T04:30:16.622Z,31.8
2023-01-08T04:35:16.695Z,31.7
2023-01-08T04:40:16.647Z,31.6
2023-01-08T04:45:16.521Z,31.3
2023-01-08T04:50:16.672Z,31.2
2023-01-08T04:55:16.618Z,31.1
2023-01-08T05:00:18.185Z,31.3
2023-01-08T05:05:18.025Z,31.3
2023-01-08T05:10:17.780Z,31.1
2023-01-08T05:15:17.667Z,31.1
2023-01-08T05:20:19.063Z,31.0
2023-01-08T05:25:17.690Z,31.0
2023-01-08T05:30:17.821Z,30.9
2023-01-08T05:35:17.932Z,30.7
2023-01-08T05:40:18.146Z,30.6
2023-01-08T05:45:17.660Z,30.7
2023-01-08T05:50:18.900Z,30.7
2023-01-08T05:55:17.768Z,30.5
2023-01-08T06:00:17.886Z,30.4
2023-01-08T06:05:17.738Z,30.3
2023-01-08T06:10:18.304Z,30.3
2023-01-08T06:15:17.821Z,30.4
2023-01-08T06:20:18.108Z,30.4
2023-01-08T06:25:17.826Z,30.4
2023-01-08T06:30:17.957Z,30.1
2023-01-08T06:35:17.985Z,30.1
2023-01-08T06:40:17.905Z,30.2
2023-01-08T06:45:18.078Z,30.0
2023-01-08T06:50:18.254Z,29.9
2023-01-08T06:55:17.970Z,29.8
2023-01-08T07:00:17.992Z,30.0
2023-01-08T07:05:18.099Z,29.9
2023-01-08T07:10:19.936Z,29.6
2023-01-08T07:15:17.988Z,29.8
2023-01-08T07:20:18.852Z,29.8
2023-01-08T07:25:17.949Z,29.7
2023-01-08T07:30:29.407Z,29.8
2023-01-08T07:35:18.411Z,29.7
2023-01-08T07:40:18.306Z,29.8
2023-01-08T07:45:18.116Z,29.5
2023-01-08T07:50:19.889Z,29.9
2023-01-08T07:55:18.164Z,29.5
2023-01-08T08:00:18.529Z,29.4
2023-01-08T08:05:18.154Z,29.2
2023-01-08T08:10:16.268Z,29.2
2023-01-08T08:15:16.161Z,29.2
2023-01-08T08:20:16.404Z,29.0
2023-01-08T08:25:16.351Z,29.0
2023-01-08T08:30:16.484Z,29.0
2023-01-08T08:35:16.262Z,28.8
2023-01-08T08:40:18.212Z,29.0
2023-01-08T08:45:16.370Z,28.7
2023-01-08T08:50:16.698Z,28.8
2023-01-08T08:55:16.286Z,28.6
2023-01-08T09:00:16.644Z,28.5
2023-01-08T09:05:16.567Z,28.5
2023-01-08T09:10:16.343Z,28.3
2023-01-08T09:15:16.335Z,28.4
2023-01-08T09:20:16.636Z,28.3
2023-01-08T09:25:16.386Z,28.2
2023-01-08T09:30:16.452Z,28.2
2023-01-08T09:35:16.727Z,28.1
2023-01-08T09:40:16.786Z,28.2
2023-01-08T09:45:16.453Z,28.3
2023-01-08T09:50:17.432Z,28.2
2023-01-08T09:55:16.412Z,28.1
2023-01-08T10:00:16.530Z,28.0
2023-01-08T10:05:16.847Z,28.0
2023-01-08T10:10:16.769Z,27.8
2023-01-08T10:15:16.559Z,27.8
2023-01-08T10:20:16.684Z,27.8
2023-01-08T10:25:16.586Z,27.6
2023-01-08T10:30:16.688Z,27.6
2023-01-08T10:35:16.818Z,27.6
2023-01-08T10:40:16.671Z,27.6
2023-01-08T10:45:16.937Z,27.6
2023-01-08T10:50:17.039Z,27.6
2023-01-08T10:55:16.619Z,27.4
2023-01-08T11:00:16.708Z,27.3
2023-01-08T11:05:16.716Z,27.2
2023-01-08T11:10:17.000Z,27.0
2023-01-08T11:15:16.667Z,26.9
2023-01-08T11:20:17.549Z,26.8
2023-01-08T11:25:17.644Z,26.8
2023-01-08T11:30:16.838Z,26.8
2023-01-08T11:35:16.850Z,26.9
2023-01-08T11:40:16.791Z,26.9
2023-01-08T11:45:16.789Z,26.9
2023-01-08T11:50:16.919Z,26.9
2023-01-08T11:55:17.726Z,26.9
2023-01-08T12:00:17.134Z,27.0
2023-01-08T12:05:16.941Z,26.8
2023-01-08T12:10:16.862Z,26.8
2023-01-08T12:15:17.016Z,26.7
2023-01-08T12:20:16.984Z,26.8
2023-01-08T12:25:16.953Z,26.7
2023-01-08T12:30:17.216Z,26.8
2023-01-08T12:35:17.428Z,26.6
2023-01-08T12:40:17.183Z,26.7
2023-01-08T12:45:16.947Z,26.7
2023-01-08T12:50:17.233Z,27.1
2023-01-08T12:55:16.970Z,27.3
2023-01-08T13:00:17.174Z,27.4
2023-01-08T13:05:17.229Z,27.5
2023-01-08T13:10:17.691Z,27.7
2023-01-08T13:15:17.292Z,28.0
2023-01-08T13:20:17.793Z,28.2
2023-01-08T13:25:17.114Z,28.4
2023-01-08T13:30:23.973Z,28.6
2023-01-08T13:35:17.197Z,28.6
2023-01-08T13:40:17.448Z,28.9
2023-01-08T13:45:17.179Z,29.2
2023-01-08T13:50:17.581Z,29.1
2023-01-08T13:55:17.763Z,29.1
2023-01-08T14:00:17.385Z,29.3
2023-01-08T14:05:17.271Z,29.7
2023-01-08T14:10:17.371Z,29.9
2023-01-08T14:15:17.287Z,29.9
2023-01-08T14:20:17.759Z,29.9
2023-01-08T14:25:17.292Z,30.1
2023-01-08T14:30:17.289Z,30.5
2023-01-08T14:35:17.414Z,30.4
2023-01-08T14:40:17.288Z,30.7
2023-01-08T14:45:17.323Z,31.1
2023-01-08T14:50:17.740Z,31.1
2023-01-08T14:55:17.292Z,31.4
2023-01-08T15:00:17.525Z,31.4
2023-01-08T15:05:17.677Z,31.7
2023-01-08T15:10:17.492Z,31.6
2023-01-08T15:15:17.372Z,32.2
2023-01-08T15:20:17.776Z,32.1
2023-01-08T15:25:17.434Z,32.3
2023-01-08T15:30:17.673Z,32.4
2023-01-08T15:35:17.486Z,32.8
2023-01-08T15:40:17.559Z,33.2
2023-01-08T15:45:17.721Z,33.3
2023-01-08T15:50:17.572Z,33.9
2023-01-08T15:55:17.628Z,34.3
2023-01-08T16:00:17.593Z,34.4
2023-01-08T16:05:17.641Z,34.6
2023-01-08T16:10:17.623Z,34.9
2023-01-08T16:15:17.555Z,33.5
2023-01-08T16:20:17.975Z,33.8
2023-01-08T16:25:17.574Z,32.3
2023-01-08T16:30:17.856Z,30.9
2023-01-08T16:35:17.674Z,30.8
2023-01-08T16:40:17.971Z,30.7
2023-01-08T16:45:17.644Z,31.3
2023-01-08T16:50:18.059Z,31.2
2023-01-08T16:55:17.940Z,31.1
2023-01-08T17:00:17.738Z,31.3
2023-01-08T17:05:17.982Z,31.6
2023-01-08T17:10:17.717Z,31.8
2023-01-08T17:15:17.746Z,32.0
2023-01-08T17:20:17.791Z,32.1
2023-01-08T17:25:17.679Z,31.9
2023-01-08T17:30:17.801Z,32.1
2023-01-08T17:35:17.998Z,31.8
2023-01-08T17:40:17.977Z,31.8
2023-01-08T17:45:17.836Z,31.8
2023-01-08T17:50:18.264Z,31.9
2023-01-08T17:55:17.820Z,32.2
2023-01-08T18:00:17.909Z,32.1
2023-01-08T18:05:17.965Z,32.0
2023-01-08T18:10:17.889Z,32.4
2023-01-08T18:15:18.038Z,32.4
2023-01-08T18:20:18.121Z,32.5
2023-01-08T18:25:17.887Z,32.7
2023-01-08T18:30:18.134Z,32.7
2023-01-08T18:35:18.019Z,33.3
2023-01-08T18:40:18.079Z,33.7
2023-01-08T18:45:18.039Z,33.7
2023-01-08T18:50:19.049Z,33.7
2023-01-08T18:55:17.967Z,34.2
2023-01-08T19:00:18.639Z,33.7
2023-01-08T19:05:17.994Z,34.1
2023-01-08T19:10:18.149Z,34.2
2023-01-08T19:15:18.000Z,34.3
2023-01-08T19:20:18.306Z,34.6
2023-01-08T19:25:18.568Z,34.7
2023-01-08T19:30:18.219Z,34.8
2023-01-08T19:35:18.172Z,34.8
2023-01-08T19:40:18.205Z,34.9
2023-01-08T19:45:18.177Z,34.9
2023-01-08T19:50:16.300Z,35.1
2023-01-08T19:55:16.114Z,35.1
2023-01-08T20:00:16.658Z,35.0
2023-01-08T20:05:16.777Z,35.1
2023-01-08T20:10:16.476Z,35.2
2023-01-08T20:15:16.252Z,35.3
2023-01-08T20:20:16.534Z,35.4
2023-01-08T20:25:16.347Z,35.4
2023-01-08T20:30:16.268Z,35.4
2023-01-08T20:35:16.494Z,35.5
2023-01-08T20:40:16.359Z,35.5
2023-01-08T20:45:16.396Z,35.4
2023-01-08T20:50:20.294Z,35.6
2023-01-08T20:55:18.476Z,35.5
2023-01-08T21:00:16.359Z,35.6
2023-01-08T21:05:16.425Z,35.7
2023-01-08T21:10:16.899Z,35.5
2023-01-08T21:15:16.329Z,35.5
2023-01-08T21:20:16.870Z,35.5
2023-01-08T21:25:16.397Z,35.5
2023-01-08T21:30:16.565Z,35.6
2023-01-08T21:35:16.537Z,35.8
2023-01-08T21:40:16.588Z,35.9
2023-01-08T21:45:16.604Z,36.0
2023-01-08T21:50:16.677Z,36.1
2023-01-08T21:55:16.486Z,36.2
2023-01-08T22:00:17.656Z,36.4
2023-01-08T22:05:16.569Z,36.6
2023-01-08T22:10:17.977Z,36.6
2023-01-08T22:15:16.972Z,36.6
2023-01-08T22:20:16.938Z,36.6
2023-01-08T22:25:17.387Z,36.7
2023-01-08T22:30:16.886Z,36.8
2023-01-08T22:35:16.847Z,37.0
2023-01-08T22:40:16.762Z,37.3
2023-01-08T22:45:16.623Z,37.3
2023-01-08T22:50:16.954Z,37.3
2023-01-08T22:55:16.688Z,37.3
2023-01-08T23:00:16.831Z,37.3
2023-01-08T23:05:16.894Z,37.3
2023-01-08T23:10:16.957Z,37.5
2023-01-08T23:15:16.720Z,37.7
2023-01-08T23:20:17.226Z,37.7
2023-01-08T23:25:16.944Z,37.6
2023-01-08T23:30:16.899Z,37.6
2023-01-08T23:35:16.829Z,37.5
2023-01-08T23:40:17.054Z,37.4
2023-01-08T23:45:16.809Z,37.3
2023-01-08T23:50:17.377Z,37.3
2023-01-08T23:55:17.976Z,37.3
